sensor_id;sensor_type;location;lat;lon;timestamp;pressure;altitude;pressure_sealevel;temperature;humidity
59055;BME280;44845;51.444;7.460;2022-10-16T00:00:56;99289.22;;;13.48;83.51
59055;BME280;44845;51.444;7.460;2022-10-16T00:03:22;99288.28;;;13.51;83.54
59055;BME280;44845;51.444;7.460;2022-10-16T00:05:47;99283.03;;;13.49;83.73
59055;BME280;44845;51.444;7.460;2022-10-16T00:08:13;99280.59;;;13.43;83.62
59055;BME280;44845;51.444;7.460;2022-10-16T00:10:39;99277.97;;;13.43;83.69
59055;BME280;44845;51.444;7.460;2022-10-16T00:13:05;99280.53;;;13.45;83.43
59055;BME280;44845;51.444;7.460;2022-10-16T00:15:33;99285.81;;;13.45;83.53
59055;BME280;44845;51.444;7.460;2022-10-16T00:18:01;99296.41;;;13.43;83.38
59055;BME280;44845;51.444;7.460;2022-10-16T00:20:26;99289.44;;;13.40;83.50
59055;BME280;44845;51.444;7.460;2022-10-16T00:22:51;99283.38;;;13.38;83.79
59055;BME280;44845;51.444;7.460;2022-10-16T00:25:17;99286.00;;;13.38;83.70
59055;BME280;44845;51.444;7.460;2022-10-16T00:27:42;99286.88;;;13.39;83.63
59055;BME280;44845;51.444;7.460;2022-10-16T00:30:08;99289.50;;;13.39;83.45
59055;BME280;44845;51.444;7.460;2022-10-16T00:32:33;99294.72;;;13.40;83.44
59055;BME280;44845;51.444;7.460;2022-10-16T00:34:59;99294.78;;;13.37;83.45
59055;BME280;44845;51.444;7.460;2022-10-16T00:37:25;99294.78;;;13.39;83.11
59055;BME280;44845;51.444;7.460;2022-10-16T00:39:50;99295.72;;;13.36;83.13
59055;BME280;44845;51.444;7.460;2022-10-16T00:42:17;99296.66;;;13.34;83.28
59055;BME280;44845;51.444;7.460;2022-10-16T00:44:56;99303.78;;;13.30;83.61
59055;BME280;44845;51.444;7.460;2022-10-16T00:47:42;99305.38;;;13.36;83.70
59055;BME280;44845;51.444;7.460;2022-10-16T00:50:24;99307.16;;;13.35;83.85
59055;BME280;44845;51.444;7.460;2022-10-16T00:52:52;99305.44;;;13.34;83.69
59055;BME280;44845;51.444;7.460;2022-10-16T00:55:18;99302.75;;;13.36;83.70
59055;BME280;44845;51.444;7.460;2022-10-16T00:57:44;99304.59;;;13.32;83.62
59055;BME280;44845;51.444;7.460;2022-10-16T01:00:12;99297.56;;;13.33;83.64
59055;BME280;44845;51.444;7.460;2022-10-16T01:02:38;99303.69;;;13.33;83.36
59055;BME280;44845;51.444;7.460;2022-10-16T01:05:04;99308.06;;;13.34;83.29
59055;BME280;44845;51.444;7.460;2022-10-16T01:07:39;99301.88;;;13.35;83.38
59055;BME280;44845;51.444;7.460;2022-10-16T01:10:30;99304.56;;;13.34;83.49
59055;BME280;44845;51.444;7.460;2022-10-16T01:13:04;99305.59;;;13.28;83.59
59055;BME280;44845;51.444;7.460;2022-10-16T01:15:37;99306.38;;;13.32;83.56
59055;BME280;44845;51.444;7.460;2022-10-16T01:18:16;99296.69;;;13.32;83.60
59055;BME280;44845;51.444;7.460;2022-10-16T01:20:53;99302.00;;;13.31;83.56
59055;BME280;44845;51.444;7.460;2022-10-16T01:29:09;99313.47;;;13.29;83.44
59055;BME280;44845;51.444;7.460;2022-10-16T01:31:39;99317.00;;;13.28;83.39
59055;BME280;44845;51.444;7.460;2022-10-16T01:34:14;99321.38;;;13.28;83.18
59055;BME280;44845;51.444;7.460;2022-10-16T01:36:41;99324.75;;;13.33;83.33
59055;BME280;44845;51.444;7.460;2022-10-16T01:39:10;99316.13;;;13.28;83.08
59055;BME280;44845;51.444;7.460;2022-10-16T01:41:45;99319.56;;;13.30;83.12
59055;BME280;44845;51.444;7.460;2022-10-16T01:44:25;99303.00;;;13.26;83.45
59055;BME280;44845;51.444;7.460;2022-10-16T01:46:53;99297.78;;;13.25;83.21
59055;BME280;44845;51.444;7.460;2022-10-16T01:49:21;99298.69;;;13.24;83.28
59055;BME280;44845;51.444;7.460;2022-10-16T01:51:50;99309.16;;;13.25;83.10
59055;BME280;44845;51.444;7.460;2022-10-16T01:54:19;99314.50;;;13.24;83.20
59055;BME280;44845;51.444;7.460;2022-10-16T01:56:45;99318.88;;;13.23;83.05
59055;BME280;44845;51.444;7.460;2022-10-16T01:59:19;99310.13;;;13.23;83.02
59055;BME280;44845;51.444;7.460;2022-10-16T02:01:49;99311.84;;;13.24;82.75
59055;BME280;44845;51.444;7.460;2022-10-16T02:07:11;99307.59;;;13.20;82.88
59055;BME280;44845;51.444;7.460;2022-10-16T02:09:36;99304.97;;;13.20;83.00
59055;BME280;44845;51.444;7.460;2022-10-16T02:12:14;99310.22;;;13.20;83.18
59055;BME280;44845;51.444;7.460;2022-10-16T02:14:41;99312.13;;;13.13;83.22
59055;BME280;44845;51.444;7.460;2022-10-16T02:17:15;99306.88;;;13.13;83.32
59055;BME280;44845;51.444;7.460;2022-10-16T02:19:41;99311.13;;;13.18;83.15
59055;BME280;44845;51.444;7.460;2022-10-16T02:22:10;99323.47;;;13.16;83.23
59055;BME280;44845;51.444;7.460;2022-10-16T02:25:22;99314.81;;;13.11;83.35
59055;BME280;44845;51.444;7.460;2022-10-16T02:28:04;99327.00;;;13.15;83.27
59055;BME280;44845;51.444;7.460;2022-10-16T02:30:52;99321.81;;;13.12;83.29
59055;BME280;44845;51.444;7.460;2022-10-16T02:33:21;99317.50;;;13.10;83.48
59055;BME280;44845;51.444;7.460;2022-10-16T02:35:48;99313.94;;;13.11;83.16
59055;BME280;44845;51.444;7.460;2022-10-16T02:38:16;99306.06;;;13.11;82.99
59055;BME280;44845;51.444;7.460;2022-10-16T02:40:43;99323.72;;;13.07;83.04
59055;BME280;44845;51.444;7.460;2022-10-16T02:43:08;99320.16;;;13.08;82.99
59055;BME280;44845;51.444;7.460;2022-10-16T02:45:34;99320.16;;;13.08;82.95
59055;BME280;44845;51.444;7.460;2022-10-16T02:48:00;99316.63;;;13.09;82.76
59055;BME280;44845;51.444;7.460;2022-10-16T02:50:25;99321.91;;;13.09;82.75
59055;BME280;44845;51.444;7.460;2022-10-16T02:52:51;99323.63;;;13.10;82.58
59055;BME280;44845;51.444;7.460;2022-10-16T02:55:16;99315.75;;;13.09;82.51
59055;BME280;44845;51.444;7.460;2022-10-16T02:57:42;99303.63;;;13.03;82.87
59055;BME280;44845;51.444;7.460;2022-10-16T03:00:10;99315.06;;;13.02;83.14
59055;BME280;44845;51.444;7.460;2022-10-16T03:02:36;99312.38;;;13.03;83.09
59055;BME280;44845;51.444;7.460;2022-10-16T03:05:02;99323.88;;;13.01;83.36
59055;BME280;44845;51.444;7.460;2022-10-16T03:07:27;99317.53;;;13.08;83.19
59055;BME280;44845;51.444;7.460;2022-10-16T03:09:52;99308.81;;;13.06;83.05
59055;BME280;44845;51.444;7.460;2022-10-16T03:12:18;99308.75;;;13.07;82.95
59055;BME280;44845;51.444;7.460;2022-10-16T03:14:43;99313.09;;;13.10;83.11
59055;BME280;44845;51.444;7.460;2022-10-16T03:17:09;99325.28;;;13.14;83.01
59055;BME280;44845;51.444;7.460;2022-10-16T03:19:34;99316.56;;;13.12;82.70
59055;BME280;44845;51.444;7.460;2022-10-16T03:22:01;99326.09;;;13.16;82.79
59055;BME280;44845;51.444;7.460;2022-10-16T03:24:26;99326.91;;;13.18;82.55
59055;BME280;44845;51.444;7.460;2022-10-16T03:26:51;99327.00;;;13.15;82.74
59055;BME280;44845;51.444;7.460;2022-10-16T03:29:17;99332.22;;;13.17;82.63
59055;BME280;44845;51.444;7.460;2022-10-16T03:31:42;99322.47;;;13.21;82.74
59055;BME280;44845;51.444;7.460;2022-10-16T03:34:07;99323.38;;;13.20;82.85
59055;BME280;44845;51.444;7.460;2022-10-16T03:36:33;99318.94;;;13.22;82.60
59055;BME280;44845;51.444;7.460;2022-10-16T03:38:58;99313.81;;;13.17;82.72
59055;BME280;44845;51.444;7.460;2022-10-16T03:41:23;99316.38;;;13.18;82.72
59055;BME280;44845;51.444;7.460;2022-10-16T03:43:49;99311.13;;;13.18;82.55
59055;BME280;44845;51.444;7.460;2022-10-16T03:46:14;99309.31;;;13.21;82.43
59055;BME280;44845;51.444;7.460;2022-10-16T03:48:39;99322.53;;;13.19;82.07
59055;BME280;44845;51.444;7.460;2022-10-16T03:51:05;99323.47;;;13.16;82.32
59055;BME280;44845;51.444;7.460;2022-10-16T03:53:30;99327.91;;;13.14;82.39
59055;BME280;44845;51.444;7.460;2022-10-16T03:55:56;99328.81;;;13.13;82.15
59055;BME280;44845;51.444;7.460;2022-10-16T03:58:21;99336.78;;;13.10;82.30
59055;BME280;44845;51.444;7.460;2022-10-16T04:00:46;99331.50;;;13.12;82.20
59055;BME280;44845;51.444;7.460;2022-10-16T04:03:15;99332.56;;;13.03;82.25
59055;BME280;44845;51.444;7.460;2022-10-16T04:05:40;99341.31;;;13.05;82.24
59055;BME280;44845;51.444;7.460;2022-10-16T04:08:06;99332.50;;;13.06;81.87
59055;BME280;44845;51.444;7.460;2022-10-16T04:10:31;99339.59;;;13.04;81.96
59055;BME280;44845;51.444;7.460;2022-10-16T04:12:57;99327.25;;;13.06;81.59
59055;BME280;44845;51.444;7.460;2022-10-16T04:15:23;99333.53;;;13.00;81.76
59055;BME280;44845;51.444;7.460;2022-10-16T04:17:49;99337.06;;;12.99;81.53
59055;BME280;44845;51.444;7.460;2022-10-16T04:20:14;99337.19;;;12.94;81.74
59055;BME280;44845;51.444;7.460;2022-10-16T04:22:39;99350.44;;;12.91;81.45
59055;BME280;44845;51.444;7.460;2022-10-16T04:25:05;99345.22;;;12.88;82.05
59055;BME280;44845;51.444;7.460;2022-10-16T04:27:31;99360.94;;;12.91;81.81
59055;BME280;44845;51.444;7.460;2022-10-16T04:29:57;99366.28;;;12.88;81.91
59055;BME280;44845;51.444;7.460;2022-10-16T04:32:23;99355.75;;;12.88;81.81
59055;BME280;44845;51.444;7.460;2022-10-16T04:34:48;99369.97;;;12.81;82.03
59055;BME280;44845;51.444;7.460;2022-10-16T04:37:13;99364.72;;;12.81;81.92
59055;BME280;44845;51.444;7.460;2022-10-16T04:39:39;99370.06;;;12.78;82.25
59055;BME280;44845;51.444;7.460;2022-10-16T04:42:04;99377.88;;;12.81;82.04
59055;BME280;44845;51.444;7.460;2022-10-16T04:44:29;99373.59;;;12.77;82.21
59055;BME280;44845;51.444;7.460;2022-10-16T04:46:55;99384.06;;;12.80;82.13
59055;BME280;44845;51.444;7.460;2022-10-16T04:49:20;99384.06;;;12.80;82.00
59055;BME280;44845;51.444;7.460;2022-10-16T04:51:45;99384.00;;;12.81;81.97
59055;BME280;44845;51.444;7.460;2022-10-16T04:54:11;99380.50;;;12.81;82.00
59055;BME280;44845;51.444;7.460;2022-10-16T04:56:36;99383.94;;;12.83;81.96
59055;BME280;44845;51.444;7.460;2022-10-16T04:59:08;99381.41;;;12.80;81.88
59055;BME280;44845;51.444;7.460;2022-10-16T05:01:34;99377.84;;;12.82;81.83
59055;BME280;44845;51.444;7.460;2022-10-16T05:03:59;99370.91;;;12.80;82.01
59055;BME280;44845;51.444;7.460;2022-10-16T05:06:24;99378.78;;;12.80;82.08
59055;BME280;44845;51.444;7.460;2022-10-16T05:08:50;99383.19;;;12.79;82.08
59055;BME280;44845;51.444;7.460;2022-10-16T05:11:15;99387.56;;;12.79;82.09
59055;BME280;44845;51.444;7.460;2022-10-16T05:13:41;99405.00;;;12.83;82.18
59055;BME280;44845;51.444;7.460;2022-10-16T05:16:06;99404.16;;;12.82;81.97
59055;BME280;44845;51.444;7.460;2022-10-16T05:18:31;99401.47;;;12.84;81.91
59055;BME280;44845;51.444;7.460;2022-10-16T05:20:57;99403.25;;;12.83;81.88
59055;BME280;44845;51.444;7.460;2022-10-16T05:23:22;99416.44;;;12.82;82.08
59055;BME280;44845;51.444;7.460;2022-10-16T05:25:55;99412.06;;;12.81;82.20
59055;BME280;44845;51.444;7.460;2022-10-16T05:28:20;99419.06;;;12.82;82.12
59055;BME280;44845;51.444;7.460;2022-10-16T05:30:46;99419.06;;;12.82;81.96
59055;BME280;44845;51.444;7.460;2022-10-16T05:33:11;99417.28;;;12.84;82.17
59055;BME280;44845;51.444;7.460;2022-10-16T05:35:37;99421.66;;;12.83;82.14
59055;BME280;44845;51.444;7.460;2022-10-16T05:38:02;99424.28;;;12.85;82.27
59055;BME280;44845;51.444;7.460;2022-10-16T05:40:27;99430.47;;;12.82;82.53
59055;BME280;44845;51.444;7.460;2022-10-16T05:42:56;99419.94;;;12.82;82.31
59055;BME280;44845;51.444;7.460;2022-10-16T05:45:21;99431.41;;;12.80;82.39
59055;BME280;44845;51.444;7.460;2022-10-16T05:47:47;99437.50;;;12.82;82.46
59055;BME280;44845;51.444;7.460;2022-10-16T05:50:12;99440.13;;;12.82;82.44
59055;BME280;44845;51.444;7.460;2022-10-16T05:52:37;99426.97;;;12.82;82.39
59055;BME280;44845;51.444;7.460;2022-10-16T05:55:03;99433.00;;;12.86;82.33
59055;BME280;44845;51.444;7.460;2022-10-16T05:57:29;99442.75;;;12.82;82.21
59055;BME280;44845;51.444;7.460;2022-10-16T05:59:55;99444.53;;;12.81;82.48
59055;BME280;44845;51.444;7.460;2022-10-16T06:02:20;99438.31;;;12.84;82.53
59055;BME280;44845;51.444;7.460;2022-10-16T06:04:45;99445.31;;;12.85;82.43
59055;BME280;44845;51.444;7.460;2022-10-16T06:07:11;99459.38;;;12.84;82.52
59055;BME280;44845;51.444;7.460;2022-10-16T06:09:36;99464.69;;;12.81;82.56
59055;BME280;44845;51.444;7.460;2022-10-16T06:12:01;99466.38;;;12.85;82.61
59055;BME280;44845;51.444;7.460;2022-10-16T06:14:27;99469.97;;;12.81;82.81
59055;BME280;44845;51.444;7.460;2022-10-16T06:16:52;99466.28;;;12.88;82.70
59055;BME280;44845;51.444;7.460;2022-10-16T06:19:17;99466.28;;;12.90;82.86
59055;BME280;44845;51.444;7.460;2022-10-16T06:21:43;99483.00;;;12.87;82.83
59055;BME280;44845;51.444;7.460;2022-10-16T06:24:09;99480.38;;;12.87;82.66
59055;BME280;44845;51.444;7.460;2022-10-16T06:26:35;99486.41;;;12.91;82.67
59055;BME280;44845;51.444;7.460;2022-10-16T06:29:00;99490.81;;;12.90;82.58
59055;BME280;44845;51.444;7.460;2022-10-16T06:31:26;99488.16;;;12.92;82.68
59055;BME280;44845;51.444;7.460;2022-10-16T06:33:55;99499.56;;;12.92;82.62
59055;BME280;44845;51.444;7.460;2022-10-16T06:36:21;99495.09;;;12.94;82.48
59055;BME280;44845;51.444;7.460;2022-10-16T06:38:47;99496.81;;;12.97;82.61
59055;BME280;44845;51.444;7.460;2022-10-16T06:41:14;99500.25;;;12.99;82.41
59055;BME280;44845;51.444;7.460;2022-10-16T06:43:40;99502.94;;;12.98;82.30
59055;BME280;44845;51.444;7.460;2022-10-16T06:46:07;99490.72;;;12.93;82.53
59055;BME280;44845;51.444;7.460;2022-10-16T06:48:36;99506.53;;;12.93;82.59
59055;BME280;44845;51.444;7.460;2022-10-16T06:53:33;99512.63;;;12.95;82.76
59055;BME280;44845;51.444;7.460;2022-10-16T06:56:07;99513.38;;;13.01;82.74
59055;BME280;44845;51.444;7.460;2022-10-16T06:58:32;99517.78;;;13.00;82.79
59055;BME280;44845;51.444;7.460;2022-10-16T07:00:57;99515.13;;;13.02;82.80
59055;BME280;44845;51.444;7.460;2022-10-16T07:03:23;99523.91;;;13.01;82.90
59055;BME280;44845;51.444;7.460;2022-10-16T07:05:48;99532.56;;;13.06;82.73
59055;BME280;44845;51.444;7.460;2022-10-16T07:08:13;99545.72;;;13.06;82.74
59055;BME280;44845;51.444;7.460;2022-10-16T07:10:39;99540.41;;;13.07;82.85
59055;BME280;44845;51.444;7.460;2022-10-16T07:13:04;99548.28;;;13.09;83.14
59055;BME280;44845;51.444;7.460;2022-10-16T07:15:29;99553.41;;;13.15;83.06
59055;BME280;44845;51.444;7.460;2022-10-16T07:17:55;99565.53;;;13.23;82.90
59055;BME280;44845;51.444;7.460;2022-10-16T07:20:20;99565.63;;;13.20;83.23
59055;BME280;44845;51.444;7.460;2022-10-16T07:22:45;99567.41;;;13.17;83.49
59055;BME280;44845;51.444;7.460;2022-10-16T07:25:11;99573.50;;;13.20;83.25
59055;BME280;44845;51.444;7.460;2022-10-16T07:27:37;99581.31;;;13.23;83.22
59055;BME280;44845;51.444;7.460;2022-10-16T07:30:02;99583.88;;;13.26;83.15
59055;BME280;44845;51.444;7.460;2022-10-16T07:32:28;99590.91;;;13.27;82.82
59055;BME280;44845;51.444;7.460;2022-10-16T07:34:53;99589.09;;;13.27;82.96
59055;BME280;44845;51.444;7.460;2022-10-16T07:37:20;99590.13;;;13.22;82.78
59055;BME280;44845;51.444;7.460;2022-10-16T07:39:46;99597.13;;;13.23;82.84
59055;BME280;44845;51.444;7.460;2022-10-16T07:42:11;99601.50;;;13.24;82.84
59055;BME280;44845;51.444;7.460;2022-10-16T07:44:36;99593.59;;;13.24;82.91
59055;BME280;44845;51.444;7.460;2022-10-16T07:47:02;99600.56;;;13.25;82.88
59055;BME280;44845;51.444;7.460;2022-10-16T07:49:27;99597.00;;;13.27;82.92
59055;BME280;44845;51.444;7.460;2022-10-16T07:51:53;99600.50;;;13.28;82.58
59055;BME280;44845;51.444;7.460;2022-10-16T07:54:18;99596.13;;;13.28;82.90
59055;BME280;44845;51.444;7.460;2022-10-16T07:56:44;99605.84;;;13.25;82.68
59055;BME280;44845;51.444;7.460;2022-10-16T07:59:09;99609.34;;;13.25;82.81
59055;BME280;44845;51.444;7.460;2022-10-16T08:01:34;99611.19;;;13.22;82.92
59055;BME280;44845;51.444;7.460;2022-10-16T08:04:00;99619.94;;;13.24;83.15
59055;BME280;44845;51.444;7.460;2022-10-16T08:06:25;99627.78;;;13.27;83.07
59055;BME280;44845;51.444;7.460;2022-10-16T08:08:51;99630.41;;;13.27;83.27
59055;BME280;44845;51.444;7.460;2022-10-16T08:11:16;99636.56;;;13.26;83.19
59055;BME280;44845;51.444;7.460;2022-10-16T08:13:41;99637.38;;;13.28;83.17
59055;BME280;44845;51.444;7.460;2022-10-16T08:16:07;99639.25;;;13.23;83.12
59055;BME280;44845;51.444;7.460;2022-10-16T08:18:36;99635.72;;;13.24;83.46
59055;BME280;44845;51.444;7.460;2022-10-16T08:21:01;99647.09;;;13.26;83.63
59055;BME280;44845;51.444;7.460;2022-10-16T08:23:27;99656.66;;;13.30;83.55
59055;BME280;44845;51.444;7.460;2022-10-16T08:25:54;99653.19;;;13.28;83.76
59055;BME280;44845;51.444;7.460;2022-10-16T08:28:19;99657.47;;;13.34;83.68
59055;BME280;44845;51.444;7.460;2022-10-16T08:30:45;99647.78;;;13.34;83.39
59055;BME280;44845;51.444;7.460;2022-10-16T08:33:10;99655.59;;;13.37;83.58
59055;BME280;44845;51.444;7.460;2022-10-16T08:35:36;99659.97;;;13.38;83.53
59055;BME280;44845;51.444;7.460;2022-10-16T08:38:05;99662.56;;;13.42;83.79
59055;BME280;44845;51.444;7.460;2022-10-16T08:40:32;99668.59;;;13.47;83.67
59055;BME280;44845;51.444;7.460;2022-10-16T08:48:03;99689.47;;;13.56;83.15
59055;BME280;44845;51.444;7.460;2022-10-16T08:50:36;99692.09;;;13.55;83.04
59055;BME280;44845;51.444;7.460;2022-10-16T08:53:04;99695.66;;;13.54;82.96
59055;BME280;44845;51.444;7.460;2022-10-16T08:55:32;99691.19;;;13.57;82.74
59055;BME280;44845;51.444;7.460;2022-10-16T08:57:59;99702.66;;;13.56;82.36
59055;BME280;44845;51.444;7.460;2022-10-16T09:00:26;99707.84;;;13.59;82.33
59055;BME280;44845;51.444;7.460;2022-10-16T09:08:01;99713.88;;;13.65;80.72
59055;BME280;44845;51.444;7.460;2022-10-16T09:10:55;99724.41;;;13.65;81.20
59055;BME280;44845;51.444;7.460;2022-10-16T09:13:29;99726.00;;;13.72;80.54
59055;BME280;44845;51.444;7.460;2022-10-16T09:18:45;99719.78;;;13.74;80.89
59055;BME280;44845;51.444;7.460;2022-10-16T09:21:18;99723.16;;;13.81;79.71
59055;BME280;44845;51.444;7.460;2022-10-16T09:23:46;99727.53;;;13.82;80.51
59055;BME280;44845;51.444;7.460;2022-10-16T09:26:13;99724.06;;;13.80;80.57
59055;BME280;44845;51.444;7.460;2022-10-16T09:28:40;99729.28;;;13.83;80.13
59055;BME280;44845;51.444;7.460;2022-10-16T09:31:07;99727.47;;;13.85;79.78
59055;BME280;44845;51.444;7.460;2022-10-16T09:33:36;99732.72;;;13.85;80.79
59055;BME280;44845;51.444;7.460;2022-10-16T09:36:04;99738.00;;;13.85;80.01
59055;BME280;44845;51.444;7.460;2022-10-16T09:38:33;99734.44;;;13.87;79.46
59055;BME280;44845;51.444;7.460;2022-10-16T09:41:00;99741.31;;;13.94;80.08
59055;BME280;44845;51.444;7.460;2022-10-16T09:43:32;99742.28;;;13.90;79.58
59055;BME280;44845;51.444;7.460;2022-10-16T09:46:08;99744.88;;;13.93;79.31
59055;BME280;44845;51.444;7.460;2022-10-16T09:51:02;99741.19;;;14.00;79.42
59055;BME280;44845;51.444;7.460;2022-10-16T09:53:43;99749.84;;;14.05;78.52
59055;BME280;44845;51.444;7.460;2022-10-16T09:56:11;99755.78;;;14.14;78.54
59055;BME280;44845;51.444;7.460;2022-10-16T09:58:42;99755.78;;;14.15;78.85
59055;BME280;44845;51.444;7.460;2022-10-16T10:01:13;99746.16;;;14.13;78.56
59055;BME280;44845;51.444;7.460;2022-10-16T10:03:41;99751.44;;;14.13;78.09
59055;BME280;44845;51.444;7.460;2022-10-16T10:06:28;99742.53;;;14.17;78.02
59055;BME280;44845;51.444;7.460;2022-10-16T10:11:38;99749.47;;;14.21;78.36
59055;BME280;44845;51.444;7.460;2022-10-16T10:14:06;99745.00;;;14.23;78.12
59055;BME280;44845;51.444;7.460;2022-10-16T10:16:31;99750.28;;;14.23;77.47
59055;BME280;44845;51.444;7.460;2022-10-16T10:19:00;99747.44;;;14.33;77.25
59055;BME280;44845;51.444;7.460;2022-10-16T10:21:26;99754.44;;;14.34;77.81
59055;BME280;44845;51.444;7.460;2022-10-16T10:23:57;99756.13;;;14.36;77.51
59055;BME280;44845;51.444;7.460;2022-10-16T10:26:27;99760.47;;;14.39;77.62
59055;BME280;44845;51.444;7.460;2022-10-16T10:34:50;99756.72;;;14.48;76.74
59055;BME280;44845;51.444;7.460;2022-10-16T10:40:17;99765.63;;;14.44;76.56
59055;BME280;44845;51.444;7.460;2022-10-16T10:42:49;99765.78;;;14.37;75.91
59055;BME280;44845;51.444;7.460;2022-10-16T10:45:43;99759.56;;;14.40;75.71
59055;BME280;44845;51.444;7.460;2022-10-16T10:51:20;99763.09;;;14.39;76.61
59055;BME280;44845;51.444;7.460;2022-10-16T10:56:50;99764.78;;;14.41;76.16
59055;BME280;44845;51.444;7.460;2022-10-16T10:59:54;99765.69;;;14.40;76.51
59055;BME280;44845;51.444;7.460;2022-10-16T11:02:40;99772.75;;;14.40;75.88
59055;BME280;44845;51.444;7.460;2022-10-16T11:05:41;99775.41;;;14.40;75.67
59055;BME280;44845;51.444;7.460;2022-10-16T11:08:17;99769.25;;;14.38;76.34
59055;BME280;44845;51.444;7.460;2022-10-16T11:11:00;99774.53;;;14.38;75.98
59055;BME280;44845;51.444;7.460;2022-10-16T11:13:37;99763.03;;;14.42;76.51
59055;BME280;44845;51.444;7.460;2022-10-16T11:16:18;99770.03;;;14.43;76.16
59055;BME280;44845;51.444;7.460;2022-10-16T11:18:56;99773.59;;;14.42;75.36
59055;BME280;44845;51.444;7.460;2022-10-16T11:21:24;99778.84;;;14.42;75.58
59055;BME280;44845;51.444;7.460;2022-10-16T11:24:00;99783.16;;;14.46;76.07
59055;BME280;44845;51.444;7.460;2022-10-16T11:26:33;99775.22;;;14.46;75.44
59055;BME280;44845;51.444;7.460;2022-10-16T11:29:01;99768.25;;;14.44;75.86
59055;BME280;44845;51.444;7.460;2022-10-16T11:31:38;99777.13;;;14.41;74.95
59055;BME280;44845;51.444;7.460;2022-10-16T11:36:51;99778.94;;;14.39;75.36
59055;BME280;44845;51.444;7.460;2022-10-16T11:39:22;99773.47;;;14.45;75.49
59055;BME280;44845;51.444;7.460;2022-10-16T11:41:50;99777.03;;;14.44;75.51
59055;BME280;44845;51.444;7.460;2022-10-16T11:52:55;99775.28;;;14.45;76.03
59055;BME280;44845;51.444;7.460;2022-10-16T11:55:28;99776.88;;;14.50;76.48
59055;BME280;44845;51.444;7.460;2022-10-16T12:01:13;99769.81;;;14.52;75.27
59055;BME280;44845;51.444;7.460;2022-10-16T12:04:13;99778.25;;;14.67;75.19
59055;BME280;44845;51.444;7.460;2022-10-16T12:09:29;99776.69;;;14.58;75.73
59055;BME280;44845;51.444;7.460;2022-10-16T12:11:55;99778.44;;;14.58;75.75
59055;BME280;44845;51.444;7.460;2022-10-16T12:17:20;99785.47;;;14.59;74.13
59055;BME280;44845;51.444;7.460;2022-10-16T12:19:58;99792.41;;;14.63;72.49
59055;BME280;44845;51.444;7.460;2022-10-16T12:22:28;99802.13;;;14.61;73.52
59055;BME280;44845;51.444;7.460;2022-10-16T12:24:54;99800.38;;;14.61;73.61
59055;BME280;44845;51.444;7.460;2022-10-16T12:27:31;99801.06;;;14.68;73.70
59055;BME280;44845;51.444;7.460;2022-10-16T12:30:01;99803.94;;;14.59;73.39
59055;BME280;44845;51.444;7.460;2022-10-16T12:32:33;99803.06;;;14.60;72.75
59055;BME280;44845;51.444;7.460;2022-10-16T12:35:00;99798.63;;;14.60;74.20
59055;BME280;44845;51.444;7.460;2022-10-16T12:37:32;99793.34;;;14.60;74.29
59055;BME280;44845;51.444;7.460;2022-10-16T12:39:59;99803.13;;;14.57;73.46
59055;BME280;44845;51.444;7.460;2022-10-16T12:44:53;99808.09;;;14.68;73.90
59055;BME280;44845;51.444;7.460;2022-10-16T12:47:35;99800.19;;;14.69;73.56
59055;BME280;44845;51.444;7.460;2022-10-16T12:50:01;99799.13;;;14.75;73.87
59055;BME280;44845;51.444;7.460;2022-10-16T12:52:36;99796.41;;;14.78;74.17
59055;BME280;44845;51.444;7.460;2022-10-16T12:55:02;99803.47;;;14.78;73.84
59055;BME280;44845;51.444;7.460;2022-10-16T13:03:26;99813.78;;;14.89;73.84
59055;BME280;44845;51.444;7.460;2022-10-16T13:09:08;99810.94;;;14.96;73.73
59055;BME280;44845;51.444;7.460;2022-10-16T13:12:05;99817.88;;;15.01;72.72
59055;BME280;44845;51.444;7.460;2022-10-16T13:15:00;99808.94;;;15.05;72.75
59055;BME280;44845;51.444;7.460;2022-10-16T13:22:57;99820.13;;;15.15;73.11
59055;BME280;44845;51.444;7.460;2022-10-16T13:28:05;99812.06;;;15.19;72.88
59055;BME280;44845;51.444;7.460;2022-10-16T13:30:40;99811.31;;;15.16;73.66
59055;BME280;44845;51.444;7.460;2022-10-16T13:33:19;99809.53;;;15.16;72.76
59055;BME280;44845;51.444;7.460;2022-10-16T13:35:51;99805.16;;;15.15;71.35
59055;BME280;44845;51.444;7.460;2022-10-16T13:38:19;99806.16;;;15.11;72.18
59055;BME280;44845;51.444;7.460;2022-10-16T13:40:53;99812.25;;;15.13;72.22
59055;BME280;44845;51.444;7.460;2022-10-16T13:43:43;99821.06;;;15.12;72.10
59055;BME280;44845;51.444;7.460;2022-10-16T13:46:14;99826.34;;;15.12;72.40
59055;BME280;44845;51.444;7.460;2022-10-16T13:48:40;99835.34;;;15.06;71.90
59055;BME280;44845;51.444;7.460;2022-10-16T13:51:12;99837.03;;;15.09;72.31
59055;BME280;44845;51.444;7.460;2022-10-16T13:53:38;99833.47;;;15.10;72.05
59055;BME280;44845;51.444;7.460;2022-10-16T13:56:07;99824.63;;;15.11;73.12
59055;BME280;44845;51.444;7.460;2022-10-16T13:58:32;99839.50;;;15.15;74.03
59055;BME280;44845;51.444;7.460;2022-10-16T14:01:15;99841.25;;;15.15;72.12
59055;BME280;44845;51.444;7.460;2022-10-16T14:03:42;99833.31;;;15.16;72.37
59055;BME280;44845;51.444;7.460;2022-10-16T14:06:13;99825.47;;;15.13;72.21
59055;BME280;44845;51.444;7.460;2022-10-16T14:08:43;99823.59;;;15.17;72.48
59055;BME280;44845;51.444;7.460;2022-10-16T14:11:09;99806.91;;;15.16;73.07
59055;BME280;44845;51.444;7.460;2022-10-16T14:13:42;99813.81;;;15.20;72.80
59055;BME280;44845;51.444;7.460;2022-10-16T14:16:17;99813.81;;;15.20;71.53
59055;BME280;44845;51.444;7.460;2022-10-16T14:18:46;99817.22;;;15.24;72.02
59055;BME280;44845;51.444;7.460;2022-10-16T14:21:16;99825.06;;;15.27;72.57
59055;BME280;44845;51.444;7.460;2022-10-16T14:23:42;99832.13;;;15.27;73.43
59055;BME280;44845;51.444;7.460;2022-10-16T14:28:34;99831.16;;;15.31;73.92
59055;BME280;44845;51.444;7.460;2022-10-16T14:31:01;99839.03;;;15.33;73.70
59055;BME280;44845;51.444;7.460;2022-10-16T14:36:24;99839.78;;;15.36;74.92
59055;BME280;44845;51.444;7.460;2022-10-16T14:41:15;99847.84;;;15.31;74.00